Nearby METAR Reports

 Weather conditions at key Metar weather stations is recorded hourly. Metar weather stations are the stations set up at regional or major airports and often considered the official stations of record for a local area.

KSEA - Seattle/Tacoma Airport
Updated: 10/23/2017 1:53pm
Mostly cloudy
Mostly cloudy
 Wind from E
Wind: E 5 mph , 7 km/h
Temperature: 64°F , 18°C
Dew Point: 43°F , 6°C
Humidity: 46%
Barometer: 30.63 inHg , 1037.3 hPa
Clouds: Mostly cloudy
Visibility: 10 miles , 16 km
Cloud details: Few Clouds 4000 ft
Few Clouds 8500 ft
Mostly cloudy 25000 ft
2017/10/23 20:53 KSEA 232053Z 08004KT 10SM FEW040 FEW085 BKN250 18/06 A3063 RMK AO2 SLP378 T01780061 50000 $
KTIW - Tacoma Narrows Bridge
Updated: 10/23/2017 1:53pm
Partly cloudy
Partly cloudy
 Wind from ESE
Wind: ESE 3 mph , 6 km/h
Temperature: 61°F , 16°C
Dew Point: 45°F , 7°C
Humidity: 55%
Barometer: 30.63 inHg , 1037.3 hPa
Clouds: Partly cloudy
Visibility: 10 miles , 16 km
Cloud details: Partly cloudy 8000 ft
2017/10/23 20:53 KTIW 232053Z 11003KT 10SM SCT080 16/07 A3063 RMK AO2 SLP374 T01560072 53001
 
KBLI - Bellingham
Updated: 10/23/2017 1:53pm
Overcast
Overcast
 Wind from N
Wind: N 8 mph , 13 km/h
Temperature: 59°F , 15°C
Dew Point: 48°F , 9°C
Humidity: 68%
Barometer: 30.64 inHg , 1037.6 hPa
Clouds: Overcast
Visibility: 10 miles , 16 km
Cloud details: Overcast 7500 ft
2017/10/23 20:53 KBLI 232053Z 36007KT 10SM OVC075 15/09 A3064 RMK AO2 SLP382 T01500089 50000
KUIL - Quillayute-La Push
Updated: 10/23/2017 1:53pm
Overcast
Overcast
 Wind from SSW
Wind: SSW 6 mph , 9 km/h
Temperature: 63°F , 17°C
Dew Point: 48°F , 9°C
Humidity: 59%
Barometer: 30.60 inHg , 1036.2 hPa
Clouds: Overcast
Visibility: 10 miles , 16 km
Cloud details: Overcast 6000 ft
2017/10/23 20:53 KUIL 232053Z AUTO 20005KT 10SM OVC060 17/09 A3060 RMK AO2 SLP361 T01720094 50001
 
KYKM - Yakima
Updated: 10/23/2017 1:53pm
Clear
Clear
 Wind from ESE
Wind: ESE 3 mph , 6 km/h
Temperature: 63°F , 17°C
Dew Point: 39°F , 4°C
Humidity: 42%
Barometer: 30.66 inHg , 1038.3 hPa
Clouds: Clear
Visibility: 10 miles , 16 km
2017/10/23 20:53 KYKM 232053Z 11003KT 10SM CLR 17/04 A3066 RMK AO2 SLP387 T01670039 58003 $
KGEG - Spokane
Updated: 10/23/2017 1:53pm
Partly cloudy
Partly cloudy
 Wind from SW
Wind: SW 8 mph , 13 km/h
Temperature: 54°F , 12°C
Dew Point: 37°F , 3°C
Humidity: 54%
Barometer: 30.67 inHg , 1038.6 hPa
Clouds: Partly cloudy
Visibility: 10 miles , 16 km
Cloud details: Few Clouds 3000 ft
Few Clouds 12000 ft
Partly cloudy 22000 ft
2017/10/23 20:53 KGEG 232053Z 23007KT 10SM FEW030 FEW120 SCT220 12/03 A3067 RMK AO2 SLP395 T01220033 50008
 
KPDX - Portland
Updated: 10/23/2017 1:53pm
Clear
Clear
 Wind from WNW
Wind: WNW 5 mph , 7 km/h
Temperature: 61°F , 16°C
Dew Point: 50°F , 10°C
Humidity: 68%
Barometer: 30.61 inHg , 1036.6 hPa
Clouds: Clear
Visibility: 10 miles , 16 km
2017/10/23 20:53 KPDX 232053Z 29004KT 10SM CLR 16/10 A3061 RMK AO2 SLP364 T01560100 58002